createdAt,value
2022-10-30T00:03:13.707Z,23.20
2022-10-30T00:05:43.046Z,20.13
2022-10-30T00:08:14.557Z,26.95
2022-10-30T00:10:41.853Z,20.95
2022-10-30T00:13:09.089Z,23.33
2022-10-30T00:15:35.892Z,16.25
2022-10-30T00:18:02.822Z,19.23
2022-10-30T00:20:29.476Z,23.08
2022-10-30T00:22:56.477Z,16.52
2022-10-30T00:25:23.447Z,25.10
2022-10-30T00:27:50.019Z,14.23
2022-10-30T00:32:43.949Z,17.17
2022-10-30T00:35:11.187Z,21.70
2022-10-30T00:37:40.073Z,20.13
2022-10-30T00:42:33.771Z,20.33
2022-10-30T00:45:00.532Z,15.77
2022-10-30T00:47:34.071Z,18.02
2022-10-30T00:50:17.813Z,20.23
2022-10-30T00:52:58.020Z,20.55
2022-10-30T00:55:30.612Z,14.75
2022-10-30T00:57:59.273Z,19.90
2022-10-30T01:00:28.509Z,16.08
2022-10-30T01:02:57.293Z,14.75
2022-10-30T01:05:27.819Z,14.73
2022-10-30T01:07:54.754Z,14.05
2022-10-30T01:10:22.333Z,18.42
2022-10-30T01:12:51.264Z,14.73
2022-10-30T01:15:26.508Z,14.00
2022-10-30T01:18:17.693Z,23.90
2022-10-30T01:20:56.374Z,12.60
2022-10-30T01:23:42.341Z,18.63
2022-10-30T01:26:24.440Z,12.88
2022-10-30T01:29:11.044Z,12.82
2022-10-30T01:31:59.031Z,16.83
2022-10-30T01:34:47.289Z,11.45
2022-10-30T01:37:20.684Z,13.82
2022-10-30T01:39:47.353Z,10.40
2022-10-30T01:44:59.625Z,10.88
2022-10-30T01:47:34.244Z,11.45
2022-10-30T01:50:12.708Z,12.63
2022-10-30T01:52:56.008Z,9.18
2022-10-30T01:55:37.352Z,10.38
2022-10-30T01:58:29.384Z,9.05
2022-10-30T02:00:58.912Z,9.13
2022-10-30T02:03:26.747Z,11.10
2022-10-30T02:05:54.182Z,11.63
2022-10-30T02:08:23.204Z,7.28
2022-10-30T02:10:53.538Z,12.65
2022-10-30T02:13:32.850Z,14.13
2022-10-30T02:15:59.729Z,12.48
2022-10-30T02:18:26.225Z,13.48
2022-10-30T02:20:53.853Z,16.20
2022-10-30T02:23:22.307Z,15.38
2022-10-30T02:25:50.072Z,22.80
2022-10-30T02:30:46.006Z,9.93
2022-10-30T02:33:12.691Z,12.32
2022-10-30T02:35:39.272Z,18.88
2022-10-30T02:40:32.172Z,29.75
2022-10-30T02:42:59.483Z,24.88
2022-10-30T02:45:25.985Z,20.10
2022-10-30T02:50:19.089Z,15.32
2022-10-30T02:52:45.610Z,17.08
2022-10-30T02:57:38.872Z,14.80
2022-10-30T03:00:06.521Z,17.92
2022-10-30T03:02:33.418Z,20.88
2022-10-30T03:05:00.158Z,15.55
2022-10-30T03:09:54.420Z,20.77
2022-10-30T03:12:21.792Z,17.35
2022-10-30T03:14:48.540Z,21.73
2022-10-30T03:17:14.998Z,15.77
2022-10-30T03:22:08.892Z,19.63
2022-10-30T03:24:38.233Z,16.73
2022-10-30T03:27:05.046Z,22.48
2022-10-30T03:29:31.505Z,18.60
2022-10-30T03:31:58.037Z,14.57
2022-10-30T03:34:29.282Z,13.32
2022-10-30T03:39:22.368Z,12.52
2022-10-30T03:41:49.081Z,13.63
2022-10-30T03:46:41.995Z,10.45
2022-10-30T03:49:19.290Z,9.60
2022-10-30T03:54:12.418Z,11.73
2022-10-30T03:56:38.874Z,13.50
2022-10-30T03:59:07.065Z,11.55
2022-10-30T04:01:38.534Z,17.52
2022-10-30T04:04:05.178Z,8.68
2022-10-30T04:06:31.658Z,11.00
2022-10-30T04:08:58.174Z,10.73
2022-10-30T04:11:24.891Z,14.05
2022-10-30T04:13:51.394Z,13.80
2022-10-30T04:18:44.561Z,11.15
2022-10-30T04:21:11.751Z,12.75
2022-10-30T04:23:38.365Z,15.55
2022-10-30T04:28:31.864Z,15.93
2022-10-30T04:30:58.381Z,10.32
2022-10-30T04:33:25.943Z,14.48
2022-10-30T04:38:20.445Z,12.73
2022-10-30T04:40:48.228Z,9.90
2022-10-30T04:43:15.445Z,8.80
2022-10-30T04:45:43.705Z,10.20
2022-10-30T04:48:14.202Z,11.25
2022-10-30T04:50:43.259Z,18.00
2022-10-30T04:53:19.163Z,8.77
2022-10-30T04:55:48.092Z,11.75
2022-10-30T04:58:15.124Z,12.70
2022-10-30T05:00:43.720Z,22.85
2022-10-30T05:03:19.391Z,9.38
2022-10-30T05:05:47.716Z,9.23
2022-10-30T05:08:14.274Z,9.25
2022-10-30T05:10:41.250Z,8.82
2022-10-30T05:13:10.361Z,10.15
2022-10-30T05:15:36.841Z,9.60
2022-10-30T05:20:30.309Z,8.27
2022-10-30T05:25:26.460Z,13.40
2022-10-30T05:28:02.326Z,12.85
2022-10-30T05:30:32.142Z,8.50
2022-10-30T05:33:09.360Z,10.93
2022-10-30T05:35:36.378Z,11.73
2022-10-30T05:38:07.423Z,8.55
2022-10-30T05:40:34.854Z,7.25
2022-10-30T05:43:02.044Z,15.15
2022-10-30T05:45:29.634Z,12.18
2022-10-30T05:48:06.507Z,14.05
2022-10-30T05:50:40.156Z,9.13
2022-10-30T05:53:16.130Z,7.95
2022-10-30T05:55:43.584Z,8.20
2022-10-30T05:58:13.877Z,9.38
2022-10-30T06:00:44.313Z,6.50
2022-10-30T06:03:15.246Z,6.97
2022-10-30T06:05:45.616Z,14.02
2022-10-30T06:08:16.150Z,10.93
2022-10-30T06:10:43.859Z,5.35
2022-10-30T06:13:13.813Z,10.35
2022-10-30T06:15:56.229Z,7.32
2022-10-30T06:18:24.168Z,12.32
2022-10-30T06:20:55.645Z,8.35
2022-10-30T06:23:33.704Z,9.80
2022-10-30T06:26:04.921Z,8.93
2022-10-30T06:28:39.588Z,8.05
2022-10-30T06:33:33.472Z,25.52
2022-10-30T06:36:00.227Z,13.30
2022-10-30T06:40:54.349Z,16.13
2022-10-30T06:46:02.972Z,7.57
2022-10-30T06:48:31.058Z,10.93
2022-10-30T06:53:26.592Z,10.07
2022-10-30T06:56:02.290Z,14.57
2022-10-30T06:58:47.472Z,10.27
2022-10-30T07:01:32.349Z,16.92
2022-10-30T07:04:13.948Z,12.82
2022-10-30T07:09:07.124Z,10.48
2022-10-30T07:11:33.724Z,14.75
2022-10-30T07:14:13.603Z,16.33
2022-10-30T07:16:47.972Z,23.38
2022-10-30T07:19:14.446Z,12.50
2022-10-30T07:21:41.428Z,17.13
2022-10-30T07:24:08.225Z,12.45
2022-10-30T07:26:43.178Z,10.48
2022-10-30T07:29:28.149Z,20.42
2022-10-30T07:32:13.221Z,13.68
2022-10-30T07:34:58.497Z,18.08
2022-10-30T07:37:35.046Z,11.65
2022-10-30T07:40:12.520Z,13.35
2022-10-30T07:43:06.358Z,20.10
2022-10-30T07:46:02.045Z,16.05
2022-10-30T07:48:47.332Z,13.48
2022-10-30T07:51:27.015Z,16.50
2022-10-30T07:53:53.601Z,11.68
2022-10-30T07:56:22.372Z,15.07
2022-10-30T07:58:54.561Z,17.05
2022-10-30T08:01:55.003Z,11.50
2022-10-30T08:04:36.656Z,14.25
2022-10-30T08:07:21.493Z,13.38
2022-10-30T08:12:14.427Z,20.38
2022-10-30T08:17:10.326Z,28.15
2022-10-30T08:19:37.836Z,18.25
2022-10-30T08:22:04.338Z,27.33
2022-10-30T08:24:35.005Z,22.80
2022-10-30T08:29:28.214Z,17.65
2022-10-30T08:31:55.074Z,21.95
2022-10-30T08:34:21.793Z,86.53
2022-10-30T08:36:53.521Z,70.43
2022-10-30T08:39:20.580Z,30.75
2022-10-30T08:42:05.506Z,34.83
2022-10-30T08:44:41.622Z,22.13
2022-10-30T08:47:41.425Z,30.55
2022-10-30T08:52:34.845Z,25.43
2022-10-30T08:57:29.224Z,30.23
2022-10-30T08:59:57.185Z,14.38
2022-10-30T09:02:46.345Z,19.70
2022-10-30T09:05:37.169Z,18.15
2022-10-30T09:08:22.288Z,16.95
2022-10-30T09:11:10.744Z,26.27
2022-10-30T09:13:37.587Z,30.98
2022-10-30T09:16:06.075Z,28.10
2022-10-30T09:18:35.459Z,18.80
2022-10-30T09:21:04.761Z,20.08
2022-10-30T09:23:36.029Z,17.45
2022-10-30T09:26:22.536Z,22.10
2022-10-30T09:29:03.849Z,23.10
2022-10-30T09:31:56.076Z,22.52
2022-10-30T09:34:24.873Z,21.02
2022-10-30T09:36:59.172Z,26.40
2022-10-30T09:39:25.869Z,20.02
2022-10-30T09:42:22.012Z,19.83
2022-10-30T09:45:29.268Z,23.65
2022-10-30T09:48:24.807Z,23.67
2022-10-30T09:51:25.832Z,21.27
2022-10-30T09:54:11.935Z,17.58
2022-10-30T09:57:01.161Z,22.20
2022-10-30T10:00:03.351Z,24.35
2022-10-30T10:02:37.877Z,22.15
2022-10-30T10:05:17.281Z,19.00
2022-10-30T10:08:13.146Z,18.05
2022-10-30T10:11:16.824Z,20.02
2022-10-30T10:14:13.926Z,17.98
2022-10-30T10:16:42.537Z,23.08
2022-10-30T10:19:15.107Z,17.75
2022-10-30T10:21:49.355Z,19.38
2022-10-30T10:24:24.796Z,21.38
2022-10-30T10:27:10.638Z,18.75
2022-10-30T10:29:58.677Z,19.80
2022-10-30T10:32:28.558Z,18.88
2022-10-30T10:35:39.329Z,18.35
2022-10-30T10:38:31.431Z,14.57
2022-10-30T10:41:24.422Z,16.45
2022-10-30T10:44:07.144Z,13.75
2022-10-30T10:47:00.653Z,18.48
2022-10-30T10:49:41.551Z,13.82
2022-10-30T10:52:32.453Z,18.00
2022-10-30T10:55:04.877Z,15.95
2022-10-30T10:57:52.039Z,14.40
2022-10-30T11:00:22.254Z,22.80
2022-10-30T11:02:59.326Z,16.13
2022-10-30T11:05:30.616Z,15.00
2022-10-30T11:08:24.919Z,17.98
2022-10-30T11:10:57.930Z,17.65
2022-10-30T11:13:38.865Z,16.42
2022-10-30T11:32:34.865Z,23.83
2022-10-30T11:35:08.677Z,12.73
2022-10-30T11:37:37.874Z,19.65
2022-10-30T11:40:07.916Z,19.85
2022-10-30T11:42:35.322Z,15.93
2022-10-30T11:45:03.480Z,18.33
2022-10-30T11:47:37.194Z,21.73
2022-10-30T11:50:08.024Z,13.50
2022-10-30T11:52:41.970Z,16.27
2022-10-30T11:55:16.275Z,14.50
2022-10-30T11:57:50.484Z,13.10
2022-10-30T12:00:22.885Z,17.85
2022-10-30T12:02:54.684Z,16.95
2022-10-30T12:05:29.394Z,22.42
2022-10-30T12:08:07.839Z,28.60
2022-10-30T12:10:45.591Z,14.77
2022-10-30T12:13:17.875Z,18.60
2022-10-30T12:15:47.089Z,20.05
2022-10-30T12:18:21.103Z,16.52
2022-10-30T12:20:52.724Z,13.15
2022-10-30T12:23:24.651Z,20.35
2022-10-30T12:26:11.403Z,19.65
2022-10-30T12:28:39.177Z,14.83
2022-10-30T12:31:33.648Z,15.93
2022-10-30T12:36:53.698Z,13.13
2022-10-30T12:39:40.333Z,45.35
2022-10-30T12:42:12.920Z,23.02
2022-10-30T12:44:45.672Z,17.42
2022-10-30T12:47:23.268Z,12.48
2022-10-30T12:49:59.012Z,15.55
2022-10-30T12:52:42.040Z,15.55
2022-10-30T12:55:33.829Z,10.40
2022-10-30T12:58:39.571Z,16.67
2022-10-30T13:01:27.369Z,18.08
2022-10-30T13:04:22.116Z,12.27
2022-10-30T13:07:01.396Z,21.27
2022-10-30T13:09:38.646Z,19.67
2022-10-30T13:12:20.510Z,11.80
2022-10-30T13:14:55.466Z,23.20
2022-10-30T13:17:22.117Z,10.38
2022-10-30T13:19:48.844Z,27.73
2022-10-30T13:22:23.989Z,15.20
2022-10-30T13:25:17.524Z,18.40
2022-10-30T13:28:12.525Z,18.58
2022-10-30T13:31:12.421Z,10.25
2022-10-30T13:33:48.602Z,9.75
2022-10-30T13:36:24.221Z,12.57
2022-10-30T13:39:09.138Z,14.27
2022-10-30T13:42:07.943Z,14.55
2022-10-30T13:44:55.563Z,16.33
2022-10-30T13:47:54.417Z,17.33
2022-10-30T13:50:38.343Z,18.33
2022-10-30T13:53:12.636Z,25.08
2022-10-30T13:55:41.728Z,11.13
2022-10-30T13:58:38.283Z,13.43
2022-10-30T14:01:30.989Z,9.90
2022-10-30T14:04:11.305Z,20.10
2022-10-30T14:06:49.968Z,13.13
2022-10-30T14:09:54.657Z,11.15
2022-10-30T14:12:55.344Z,12.45
2022-10-30T14:15:45.159Z,11.95
2022-10-30T14:18:11.565Z,21.08
2022-10-30T14:20:49.150Z,16.52
2022-10-30T14:23:25.412Z,14.40
2022-10-30T14:26:04.013Z,13.27
2022-10-30T14:28:32.447Z,18.17
2022-10-30T14:31:07.022Z,14.93
2022-10-30T14:33:39.532Z,16.20
2022-10-30T14:36:23.945Z,10.93
2022-10-30T14:39:19.796Z,13.02
2022-10-30T14:42:05.103Z,14.32
2022-10-30T14:44:53.216Z,16.13
2022-10-30T14:47:33.863Z,16.27
2022-10-30T14:50:22.052Z,16.98
2022-10-30T14:52:48.552Z,16.27
2022-10-30T14:58:02.660Z,17.73
2022-10-30T15:00:36.898Z,17.88
2022-10-30T15:03:13.924Z,13.48
2022-10-30T15:08:41.644Z,17.45
2022-10-30T15:11:43.856Z,14.05
2022-10-30T15:14:48.539Z,21.48
2022-10-30T15:17:27.565Z,12.40
2022-10-30T15:19:54.678Z,10.88
2022-10-30T15:22:23.548Z,16.23
2022-10-30T15:24:51.418Z,19.13
2022-10-30T15:27:21.037Z,22.25
2022-10-30T15:29:54.267Z,13.85
2022-10-30T15:32:24.196Z,24.50
2022-10-30T15:34:59.891Z,25.92
2022-10-30T15:37:27.158Z,13.77
2022-10-30T15:40:19.647Z,20.05
2022-10-30T15:42:51.224Z,25.50
2022-10-30T15:45:34.774Z,18.92
2022-10-30T15:48:06.924Z,16.13
2022-10-30T15:50:35.172Z,22.95
2022-10-30T15:53:02.119Z,16.38
2022-10-30T15:55:31.532Z,14.93
2022-10-30T15:58:03.867Z,16.20
2022-10-30T16:00:35.691Z,19.95
2022-10-30T16:03:15.587Z,19.05
2022-10-30T16:05:42.371Z,29.95
2022-10-30T16:08:16.341Z,25.75
2022-10-30T16:10:44.333Z,20.95
2022-10-30T16:13:19.929Z,19.80
2022-10-30T16:15:47.673Z,20.65
2022-10-30T16:18:20.927Z,13.80
2022-10-30T16:20:51.025Z,23.67
2022-10-30T16:23:20.138Z,20.70
2022-10-30T16:25:48.760Z,18.95
2022-10-30T16:28:46.954Z,20.95
2022-10-30T16:33:44.602Z,26.60
2022-10-30T16:36:16.698Z,14.27
2022-10-30T16:38:46.221Z,21.23
2022-10-30T16:41:13.721Z,19.65
2022-10-30T16:43:43.044Z,17.33
2022-10-30T16:46:15.721Z,16.15
2022-10-30T16:48:47.549Z,16.70
2022-10-30T16:51:17.494Z,19.17
2022-10-30T16:53:49.014Z,22.52
2022-10-30T16:56:27.804Z,19.00
2022-10-30T16:58:58.924Z,23.50
2022-10-30T17:01:29.217Z,23.45
2022-10-30T17:03:56.744Z,24.98
2022-10-30T17:06:34.676Z,25.98
2022-10-30T17:09:08.490Z,21.50
2022-10-30T17:11:39.893Z,26.90
2022-10-30T17:14:18.859Z,23.25
2022-10-30T17:17:00.162Z,18.70
2022-10-30T17:19:29.857Z,19.50
2022-10-30T17:22:02.560Z,22.23
2022-10-30T17:24:32.444Z,23.48
2022-10-30T17:27:01.283Z,28.98
2022-10-30T17:29:36.615Z,37.47
2022-10-30T17:32:18.113Z,20.27
2022-10-30T17:34:44.781Z,24.10
2022-10-30T17:39:37.666Z,18.13
2022-10-30T17:42:04.706Z,19.33
2022-10-30T17:44:34.342Z,24.90
2022-10-30T17:47:14.743Z,23.80
2022-10-30T17:49:41.614Z,24.65
2022-10-30T17:52:12.413Z,20.67
2022-10-30T17:54:39.448Z,18.60
2022-10-30T17:57:05.941Z,26.42
2022-10-30T18:01:58.987Z,25.00
2022-10-30T18:04:25.554Z,22.88
2022-10-30T18:09:18.539Z,27.10
2022-10-30T18:14:12.377Z,25.98
2022-10-30T18:16:39.010Z,34.05
2022-10-30T18:21:35.845Z,26.55
2022-10-30T18:24:02.674Z,34.83
2022-10-30T18:26:29.250Z,24.55
2022-10-30T18:31:23.965Z,29.20
2022-10-30T18:33:51.303Z,20.58
2022-10-30T18:36:23.477Z,27.92
2022-10-30T18:38:52.532Z,24.73
2022-10-30T18:41:31.034Z,27.40
2022-10-30T18:43:57.494Z,30.77
2022-10-30T18:46:24.643Z,25.58
2022-10-30T18:48:51.107Z,20.20
2022-10-30T18:51:25.632Z,19.15
2022-10-30T18:53:52.720Z,25.17
2022-10-30T18:56:27.490Z,26.65
2022-10-30T18:59:00.673Z,24.00
2022-10-30T19:01:31.902Z,37.20
2022-10-30T19:04:01.357Z,35.67
2022-10-30T19:06:28.607Z,23.48
2022-10-30T19:08:55.130Z,27.55
2022-10-30T19:11:24.829Z,26.88
2022-10-30T19:13:53.175Z,34.38
2022-10-30T19:16:20.342Z,32.05
2022-10-30T19:18:48.456Z,33.38
2022-10-30T19:21:20.380Z,27.02
2022-10-30T19:23:47.353Z,24.48
2022-10-30T19:26:15.084Z,28.40
2022-10-30T19:28:41.876Z,26.95
2022-10-30T19:31:13.125Z,24.95
2022-10-30T19:33:39.610Z,31.95
2022-10-30T19:36:06.199Z,30.70
2022-10-30T19:40:59.926Z,35.42
2022-10-30T19:43:26.548Z,31.65
2022-10-30T19:48:40.449Z,34.63
2022-10-30T19:51:11.478Z,29.35
2022-10-30T19:53:38.888Z,34.00
2022-10-30T19:56:05.741Z,28.73
2022-10-30T19:58:32.217Z,26.15
2022-10-30T20:00:58.684Z,25.58
2022-10-30T20:05:51.622Z,24.85
2022-10-30T20:10:52.977Z,21.90
2022-10-30T20:13:20.433Z,27.20
2022-10-30T20:15:47.034Z,24.70
2022-10-30T20:20:48.195Z,18.75
2022-10-30T20:23:14.902Z,22.15
2022-10-30T20:25:41.698Z,16.70
2022-10-30T20:28:29.189Z,13.73
2022-10-30T20:30:55.914Z,11.70
2022-10-30T20:33:23.239Z,9.85
2022-10-30T20:35:51.130Z,14.77
2022-10-30T20:38:26.085Z,12.50
2022-10-30T20:40:53.309Z,15.10
2022-10-30T20:43:22.022Z,11.93
2022-10-30T20:45:48.590Z,15.85
2022-10-30T20:50:41.890Z,14.40
2022-10-30T20:53:12.804Z,13.77
2022-10-30T20:55:40.766Z,10.95
2022-10-30T20:58:07.268Z,16.00
2022-10-30T21:00:33.933Z,26.13
2022-10-30T21:03:04.923Z,20.80
2022-10-30T21:05:44.966Z,20.85
2022-10-30T21:08:15.168Z,17.65
2022-10-30T21:10:42.170Z,21.65
2022-10-30T21:13:10.759Z,24.90
2022-10-30T21:15:39.819Z,29.60
2022-10-30T21:18:06.503Z,37.38
2022-10-30T21:20:32.944Z,31.88
2022-10-30T21:23:00.453Z,39.30
2022-10-30T21:25:26.984Z,37.08
2022-10-30T21:27:56.425Z,25.23
2022-10-30T21:30:22.918Z,19.55
2022-10-30T21:35:16.121Z,9.77
2022-10-30T21:37:42.617Z,17.42
2022-10-30T21:40:09.741Z,13.15
2022-10-30T21:42:36.193Z,13.75
2022-10-30T21:45:02.947Z,12.13
2022-10-30T21:47:29.417Z,11.02
2022-10-30T21:49:55.861Z,8.50
2022-10-30T21:52:22.357Z,8.80
2022-10-30T21:54:48.823Z,8.63
2022-10-30T21:59:41.720Z,12.55
2022-10-30T22:02:13.120Z,10.15
2022-10-30T22:04:39.588Z,14.43
2022-10-30T22:07:06.094Z,7.38
2022-10-30T22:11:58.969Z,12.40
2022-10-30T22:14:25.461Z,13.38
2022-10-30T22:16:51.952Z,14.23
2022-10-30T22:21:44.846Z,11.02
2022-10-30T22:26:39.437Z,12.70
2022-10-30T22:29:05.893Z,14.15
2022-10-30T22:31:32.368Z,9.10
2022-10-30T22:34:00.544Z,7.85
2022-10-30T22:36:32.831Z,11.25
2022-10-30T22:39:07.805Z,8.70
2022-10-30T22:41:38.114Z,13.90
2022-10-30T22:44:08.017Z,18.02
2022-10-30T22:46:35.870Z,42.72
2022-10-30T22:49:02.816Z,39.85
2022-10-30T22:51:32.213Z,18.27
2022-10-30T22:54:01.285Z,13.65
2022-10-30T22:56:30.659Z,13.75
2022-10-30T22:59:00.277Z,9.88
2022-10-30T23:17:41.873Z,19.23
2022-10-30T23:22:34.962Z,11.32
2022-10-30T23:27:27.941Z,13.73
2022-10-30T23:32:20.851Z,10.35
2022-10-30T23:37:13.834Z,11.93
2022-10-30T23:42:06.807Z,16.00
2022-10-30T23:46:59.917Z,11.40
2022-10-30T23:49:29.020Z,11.93
2022-10-30T23:51:58.289Z,10.63
2022-10-30T23:54:24.852Z,10.48
2022-10-30T23:59:17.833Z,11.00
